createdAt,value
2023-04-30T00:02:21.365Z,10.63
2023-04-30T00:05:06.894Z,10.58
2023-04-30T00:07:34.943Z,10.54
2023-04-30T00:10:02.027Z,10.51
2023-04-30T00:12:29.363Z,10.47
2023-04-30T00:14:56.553Z,10.42
2023-04-30T00:17:23.889Z,10.39
2023-04-30T00:19:50.922Z,10.36
2023-04-30T00:22:17.924Z,10.34
2023-04-30T00:24:44.645Z,10.31
2023-04-30T00:27:11.449Z,10.27
2023-04-30T00:29:38.637Z,10.25
2023-04-30T00:32:06.433Z,10.22
2023-04-30T00:34:33.168Z,10.19
2023-04-30T00:37:00.085Z,10.15
2023-04-30T00:39:26.866Z,10.10
2023-04-30T00:41:53.788Z,10.07
2023-04-30T00:44:20.781Z,10.03
2023-04-30T00:46:47.584Z,9.99
2023-04-30T00:49:15.271Z,9.96
2023-04-30T00:51:42.431Z,9.94
2023-04-30T00:54:09.531Z,9.91
2023-04-30T00:56:36.580Z,9.79
2023-04-30T00:59:03.495Z,9.86
2023-04-30T01:01:30.704Z,9.84
2023-04-30T01:03:57.710Z,9.78
2023-04-30T01:06:25.872Z,9.74
2023-04-30T01:08:53.146Z,9.71
2023-04-30T01:11:28.577Z,9.69
2023-04-30T01:14:08.770Z,9.65
2023-04-30T01:16:40.218Z,9.60
2023-04-30T01:19:20.620Z,9.56
2023-04-30T01:21:48.524Z,9.54
2023-04-30T01:24:21.347Z,9.51
2023-04-30T01:27:09.606Z,9.46
2023-04-30T01:29:36.594Z,9.43
2023-04-30T01:32:03.735Z,9.40
2023-04-30T01:34:31.165Z,9.38
2023-04-30T01:37:22.349Z,9.39
2023-04-30T01:39:58.370Z,9.37
2023-04-30T01:42:42.079Z,9.39
2023-04-30T01:45:27.738Z,9.46
2023-04-30T01:48:03.670Z,9.52
2023-04-30T01:50:47.325Z,9.60
2023-04-30T01:53:18.198Z,9.66
2023-04-30T01:55:50.037Z,9.69
2023-04-30T01:58:17.002Z,9.71
2023-04-30T02:00:43.716Z,9.75
2023-04-30T02:03:10.731Z,9.80
2023-04-30T02:05:37.711Z,9.84
2023-04-30T02:08:04.702Z,9.88
2023-04-30T02:10:31.527Z,9.91
2023-04-30T02:12:59.573Z,9.90
2023-04-30T02:15:27.482Z,9.87
2023-04-30T02:17:54.598Z,9.81
2023-04-30T02:20:21.674Z,9.74
2023-04-30T02:22:48.537Z,9.68
2023-04-30T02:25:15.484Z,9.65
2023-04-30T02:27:42.192Z,9.66
2023-04-30T02:30:09.802Z,9.69
2023-04-30T02:32:36.646Z,9.74
2023-04-30T02:35:03.724Z,9.81
2023-04-30T02:37:30.557Z,9.87
2023-04-30T02:39:57.906Z,9.96
2023-04-30T02:42:25.631Z,10.04
2023-04-30T02:44:52.369Z,10.09
2023-04-30T02:47:19.082Z,10.12
2023-04-30T02:49:45.943Z,10.17
2023-04-30T02:52:12.647Z,10.21
2023-04-30T02:54:39.725Z,10.25
2023-04-30T02:57:07.373Z,10.29
2023-04-30T02:59:34.375Z,10.33
2023-04-30T03:02:01.273Z,10.38
2023-04-30T03:04:28.234Z,10.41
2023-04-30T03:06:54.995Z,10.45
2023-04-30T03:09:21.790Z,10.47
2023-04-30T03:11:48.716Z,10.50
2023-04-30T03:14:15.685Z,10.50
2023-04-30T03:16:42.492Z,10.51
2023-04-30T03:19:09.474Z,10.50
2023-04-30T03:21:36.138Z,10.49
2023-04-30T03:24:02.979Z,10.47
2023-04-30T03:26:29.861Z,10.45
2023-04-30T03:28:56.794Z,10.44
2023-04-30T03:31:23.719Z,10.46
2023-04-30T03:33:51.080Z,10.48
2023-04-30T03:36:17.928Z,10.54
2023-04-30T03:38:44.758Z,10.59
2023-04-30T03:41:11.694Z,10.68
2023-04-30T03:43:38.546Z,10.74
2023-04-30T03:46:05.518Z,10.79
2023-04-30T03:48:32.407Z,10.86
2023-04-30T03:50:59.154Z,10.93
2023-04-30T03:53:26.776Z,10.97
2023-04-30T03:55:54.713Z,11.01
2023-04-30T03:58:22.223Z,11.10
2023-04-30T04:00:49.123Z,11.16
2023-04-30T04:03:16.136Z,11.18
2023-04-30T04:05:43.311Z,11.23
2023-04-30T04:08:10.348Z,11.20
2023-04-30T04:10:38.550Z,11.16
2023-04-30T04:13:05.404Z,11.02
2023-04-30T04:15:33.522Z,11.11
2023-04-30T04:18:01.013Z,11.16
2023-04-30T04:20:30.103Z,11.19
2023-04-30T04:22:57.341Z,11.25
2023-04-30T04:25:25.271Z,11.39
2023-04-30T04:27:52.618Z,11.56
2023-04-30T04:30:19.842Z,11.73
2023-04-30T04:32:50.782Z,11.90
2023-04-30T04:35:19.346Z,12.06
2023-04-30T04:37:46.392Z,12.19
2023-04-30T04:40:15.504Z,12.33
2023-04-30T04:42:42.274Z,12.44
2023-04-30T04:45:10.023Z,12.47
2023-04-30T04:47:38.133Z,12.45
2023-04-30T04:50:05.053Z,12.45
2023-04-30T04:52:31.956Z,12.51
2023-04-30T04:54:58.688Z,12.54
2023-04-30T04:57:25.882Z,12.62
2023-04-30T04:59:53.554Z,12.68
2023-04-30T05:02:21.371Z,12.77
2023-04-30T05:04:50.524Z,12.85
2023-04-30T05:07:18.944Z,12.90
2023-04-30T05:09:49.286Z,12.89
2023-04-30T05:12:16.222Z,12.65
2023-04-30T05:14:44.016Z,12.77
2023-04-30T05:17:11.100Z,12.92
2023-04-30T05:19:37.702Z,12.99
2023-04-30T05:22:05.455Z,13.10
2023-04-30T05:24:32.197Z,13.22
2023-04-30T05:26:59.065Z,13.37
2023-04-30T05:29:25.801Z,13.49
2023-04-30T05:31:52.852Z,13.64
2023-04-30T05:34:19.661Z,13.77
2023-04-30T05:36:46.672Z,13.82
2023-04-30T05:39:13.409Z,13.50
2023-04-30T05:41:40.175Z,13.61
2023-04-30T05:44:07.229Z,13.61
2023-04-30T05:46:35.621Z,13.64
2023-04-30T05:49:02.401Z,13.70
2023-04-30T05:51:29.386Z,13.73
2023-04-30T05:53:57.592Z,13.79
2023-04-30T05:56:25.183Z,13.92
2023-04-30T05:58:52.688Z,14.10
2023-04-30T06:01:20.680Z,14.24
2023-04-30T06:03:47.559Z,14.39
2023-04-30T06:06:14.334Z,14.52
2023-04-30T06:08:44.576Z,14.71
2023-04-30T06:11:12.019Z,14.80
2023-04-30T06:13:39.333Z,14.80
2023-04-30T06:16:08.768Z,14.96
2023-04-30T06:18:36.092Z,15.11
2023-04-30T06:21:03.006Z,15.28
2023-04-30T06:23:29.852Z,15.38
2023-04-30T06:25:56.627Z,15.14
2023-04-30T06:28:23.289Z,15.09
2023-04-30T06:30:50.308Z,15.20
2023-04-30T06:33:17.476Z,15.36
2023-04-30T06:35:44.174Z,15.12
2023-04-30T06:38:11.412Z,14.71
2023-04-30T06:40:38.496Z,14.24
2023-04-30T06:43:05.459Z,14.06
2023-04-30T06:45:32.179Z,14.27
2023-04-30T06:47:59.653Z,14.60
2023-04-30T06:50:26.493Z,14.71
2023-04-30T06:52:53.282Z,15.00
2023-04-30T06:55:20.153Z,15.63
2023-04-30T06:57:47.558Z,16.30
2023-04-30T07:00:16.939Z,16.81
2023-04-30T07:02:43.893Z,17.12
2023-04-30T07:05:11.389Z,17.41
2023-04-30T07:07:38.378Z,17.67
2023-04-30T07:10:05.453Z,17.73
2023-04-30T07:12:32.204Z,17.76
2023-04-30T07:14:58.902Z,17.75
2023-04-30T07:17:27.510Z,17.80
2023-04-30T07:19:56.195Z,17.95
2023-04-30T07:22:23.209Z,17.86
2023-04-30T07:24:49.892Z,17.95
2023-04-30T07:27:16.720Z,18.04
2023-04-30T07:29:43.435Z,18.03
2023-04-30T07:32:10.965Z,17.81
2023-04-30T07:34:38.414Z,17.87
2023-04-30T07:37:05.487Z,18.10
2023-04-30T07:39:32.226Z,18.26
2023-04-30T07:41:59.060Z,18.13
2023-04-30T07:44:25.854Z,18.11
2023-04-30T07:46:52.659Z,18.30
2023-04-30T07:49:19.381Z,18.26
2023-04-30T07:51:46.878Z,17.86
2023-04-30T07:54:13.707Z,18.15
2023-04-30T07:56:40.603Z,18.24
2023-04-30T07:59:07.349Z,18.49
2023-04-30T08:01:34.286Z,18.91
2023-04-30T08:04:01.575Z,19.27
2023-04-30T08:06:28.992Z,19.67
2023-04-30T08:08:55.999Z,19.83
2023-04-30T08:11:22.990Z,20.01
2023-04-30T08:13:49.664Z,19.61
2023-04-30T08:16:17.247Z,19.59
2023-04-30T08:18:45.084Z,19.41
2023-04-30T08:21:13.717Z,18.87
2023-04-30T08:23:40.552Z,18.64
2023-04-30T08:26:07.585Z,18.52
2023-04-30T08:28:34.332Z,18.32
2023-04-30T08:31:01.230Z,18.27
2023-04-30T08:33:27.973Z,18.20
2023-04-30T08:35:54.938Z,18.53
2023-04-30T08:38:21.627Z,18.67
2023-04-30T08:41:00.652Z,18.99
2023-04-30T08:43:27.976Z,19.04
2023-04-30T08:45:54.990Z,19.40
2023-04-30T08:48:23.813Z,19.58
2023-04-30T08:50:50.531Z,19.40
2023-04-30T08:53:17.762Z,19.17
2023-04-30T08:55:45.104Z,19.01
2023-04-30T08:58:11.918Z,18.96
2023-04-30T09:00:39.509Z,18.93
2023-04-30T09:03:07.566Z,18.72
2023-04-30T09:05:34.571Z,18.84
2023-04-30T09:08:04.084Z,18.67
2023-04-30T09:10:35.403Z,18.68
2023-04-30T09:13:05.546Z,18.85
2023-04-30T09:15:33.270Z,19.00
2023-04-30T09:18:18.831Z,19.55
2023-04-30T09:20:55.082Z,19.84
2023-04-30T09:23:23.250Z,20.15
2023-04-30T09:25:49.997Z,20.53
2023-04-30T09:28:16.850Z,21.05
2023-04-30T09:30:43.501Z,21.30
2023-04-30T09:33:12.178Z,21.74
2023-04-30T09:35:41.744Z,22.14
2023-04-30T09:38:25.187Z,22.36
2023-04-30T09:40:52.017Z,22.63
2023-04-30T09:43:18.930Z,22.49
2023-04-30T09:45:52.938Z,22.84
2023-04-30T09:48:23.183Z,22.80
2023-04-30T09:50:50.369Z,22.34
2023-04-30T09:53:20.750Z,21.83
2023-04-30T09:55:49.886Z,21.75
2023-04-30T09:58:17.645Z,21.52
2023-04-30T10:00:45.596Z,21.23
2023-04-30T10:03:13.617Z,21.36
2023-04-30T10:05:48.769Z,21.48
2023-04-30T10:08:27.262Z,21.70
2023-04-30T10:11:00.844Z,21.66
2023-04-30T10:13:32.169Z,22.33
2023-04-30T10:16:04.565Z,22.81
2023-04-30T10:18:34.368Z,22.76
2023-04-30T10:21:03.594Z,21.83
2023-04-30T10:23:30.691Z,21.27
2023-04-30T10:25:58.319Z,20.44
2023-04-30T10:28:25.324Z,19.74
2023-04-30T10:30:52.583Z,19.09
2023-04-30T10:33:51.437Z,17.91
2023-04-30T10:36:24.602Z,16.85
2023-04-30T10:38:51.872Z,16.18
2023-04-30T10:41:20.232Z,16.15
2023-04-30T10:43:47.303Z,16.49
2023-04-30T10:46:22.147Z,16.93
2023-04-30T10:48:49.074Z,17.40
2023-04-30T10:51:16.073Z,17.87
2023-04-30T10:53:44.119Z,18.42
2023-04-30T10:56:11.122Z,18.86
2023-04-30T10:58:39.002Z,19.02
2023-04-30T11:01:12.024Z,19.11
2023-04-30T11:03:42.345Z,19.33
2023-04-30T11:06:13.514Z,19.83
2023-04-30T11:08:43.414Z,20.57
2023-04-30T11:11:11.151Z,21.31
2023-04-30T11:13:47.773Z,21.43
2023-04-30T11:16:17.806Z,22.13
2023-04-30T11:18:45.468Z,21.99
2023-04-30T11:21:12.725Z,21.97
2023-04-30T11:23:43.514Z,22.09
2023-04-30T11:26:11.970Z,22.39
2023-04-30T11:28:38.843Z,21.70
2023-04-30T11:31:05.939Z,21.40
2023-04-30T11:33:33.618Z,20.85
2023-04-30T11:36:01.934Z,20.60
2023-04-30T11:38:29.871Z,20.67
2023-04-30T11:40:57.670Z,21.07
2023-04-30T11:43:31.176Z,21.24
2023-04-30T11:46:17.723Z,20.87
2023-04-30T11:48:45.650Z,20.46
2023-04-30T11:53:31.110Z,20.83
2023-04-30T11:56:02.229Z,20.95
2023-04-30T11:58:33.253Z,21.15
2023-04-30T12:01:00.841Z,21.02
2023-04-30T12:03:27.652Z,21.05
2023-04-30T12:05:54.713Z,21.42
2023-04-30T12:08:21.486Z,21.34
2023-04-30T12:10:48.320Z,20.89
2023-04-30T12:13:16.217Z,20.66
2023-04-30T12:15:43.142Z,19.91
2023-04-30T12:18:13.843Z,19.16
2023-04-30T12:20:42.090Z,18.73
2023-04-30T12:23:08.734Z,18.46
2023-04-30T12:25:45.733Z,18.34
2023-04-30T12:28:12.451Z,17.70
2023-04-30T12:30:39.360Z,17.63
2023-04-30T12:33:06.358Z,17.61
2023-04-30T12:35:33.383Z,17.56
2023-04-30T12:38:04.832Z,17.90
2023-04-30T12:40:31.849Z,18.38
2023-04-30T12:43:04.218Z,18.85
2023-04-30T12:45:53.721Z,19.46
2023-04-30T12:48:23.022Z,19.66
2023-04-30T12:50:54.152Z,19.56
2023-04-30T12:53:22.046Z,19.40
2023-04-30T12:56:24.624Z,19.52
2023-04-30T12:58:52.111Z,19.45
2023-04-30T13:01:21.386Z,19.45
2023-04-30T13:03:48.746Z,19.42
2023-04-30T13:06:16.220Z,19.28
2023-04-30T13:08:57.124Z,19.40
2023-04-30T13:11:27.142Z,19.29
2023-04-30T13:13:57.504Z,19.49
2023-04-30T13:16:25.401Z,19.50
2023-04-30T13:18:53.115Z,19.44
2023-04-30T13:21:21.368Z,19.49
2023-04-30T13:23:52.916Z,19.61
2023-04-30T13:26:22.450Z,19.70
2023-04-30T16:11:57.523Z,27.99
2023-04-30T16:14:24.807Z,27.78
2023-04-30T16:16:52.271Z,26.51
2023-04-30T16:19:21.568Z,25.17
2023-04-30T16:21:48.479Z,25.64
2023-04-30T16:24:16.373Z,26.24
2023-04-30T16:26:43.388Z,26.29
2023-04-30T16:29:10.359Z,26.74
2023-04-30T16:31:37.324Z,27.27
2023-04-30T16:34:04.464Z,27.94
2023-04-30T16:36:32.799Z,28.70
2023-04-30T16:38:59.862Z,28.97
2023-04-30T16:41:26.940Z,29.18
2023-04-30T16:43:53.957Z,29.30
2023-04-30T16:46:20.894Z,29.27
2023-04-30T16:48:48.432Z,28.36
2023-04-30T16:51:15.286Z,27.45
2023-04-30T16:53:42.655Z,26.20
2023-04-30T16:56:09.479Z,24.85
2023-04-30T16:58:38.000Z,23.89
2023-04-30T17:01:05.075Z,22.84
2023-04-30T17:03:34.865Z,21.97
2023-04-30T17:06:02.191Z,21.00
2023-04-30T17:08:29.229Z,19.85
2023-04-30T17:10:56.306Z,19.87
2023-04-30T17:13:23.372Z,19.60
2023-04-30T17:15:50.646Z,19.20
2023-04-30T17:18:17.721Z,18.59
2023-04-30T17:20:46.524Z,18.25
2023-04-30T17:23:13.478Z,18.01
2023-04-30T17:25:40.508Z,17.93
2023-04-30T17:28:07.434Z,17.64
2023-04-30T17:30:35.285Z,17.26
2023-04-30T17:33:02.895Z,17.20
2023-04-30T17:35:29.957Z,16.95
2023-04-30T17:37:56.783Z,16.67
2023-04-30T17:40:23.870Z,16.60
2023-04-30T17:42:51.971Z,16.51
2023-04-30T17:45:19.163Z,16.24
2023-04-30T17:47:46.204Z,15.92
2023-04-30T17:50:13.230Z,15.90
2023-04-30T17:52:40.250Z,15.69
2023-04-30T17:55:08.746Z,15.64
2023-04-30T17:57:36.296Z,15.61
2023-04-30T18:00:04.900Z,15.45
2023-04-30T18:02:41.937Z,15.30
2023-04-30T18:05:10.059Z,15.24
2023-04-30T18:07:37.405Z,14.80
2023-04-30T18:10:04.636Z,14.81
2023-04-30T18:12:31.728Z,14.90
2023-04-30T18:14:59.347Z,14.88
2023-04-30T18:17:45.849Z,14.65
2023-04-30T18:20:12.959Z,14.58
2023-04-30T18:22:43.424Z,14.67
2023-04-30T18:25:11.948Z,14.52
2023-04-30T18:27:43.593Z,14.55
2023-04-30T18:30:11.902Z,14.67
2023-04-30T18:32:38.908Z,14.55
2023-04-30T18:35:06.544Z,14.63
2023-04-30T18:37:33.950Z,14.61
2023-04-30T18:40:01.088Z,14.41
2023-04-30T18:42:29.092Z,14.31
2023-04-30T18:44:57.266Z,14.36
2023-04-30T18:47:24.893Z,14.51
2023-04-30T18:49:51.990Z,14.43
2023-04-30T18:52:18.984Z,14.48
2023-04-30T18:54:46.570Z,14.48
2023-04-30T18:57:16.321Z,14.53
2023-04-30T18:59:43.449Z,14.62
2023-04-30T19:02:11.344Z,14.65
2023-04-30T19:04:38.541Z,14.74
2023-04-30T19:07:05.472Z,14.80
2023-04-30T19:09:36.815Z,14.83
2023-04-30T19:12:04.164Z,14.82
2023-04-30T19:14:31.231Z,14.74
2023-04-30T19:17:00.245Z,14.89
2023-04-30T19:19:27.879Z,14.96
2023-04-30T19:21:54.882Z,14.86
2023-04-30T19:24:22.681Z,14.81
2023-04-30T19:26:51.674Z,14.79
2023-04-30T19:29:19.071Z,14.93
2023-04-30T19:31:46.378Z,14.86
2023-04-30T19:34:13.988Z,14.78
2023-04-30T19:36:44.186Z,14.85
2023-04-30T19:39:11.919Z,14.76
2023-04-30T19:41:39.276Z,14.88
2023-04-30T19:44:07.763Z,14.88
2023-04-30T19:46:35.047Z,14.89
2023-04-30T19:49:02.271Z,14.87
2023-04-30T19:51:29.143Z,14.81
2023-04-30T19:53:59.413Z,14.77
2023-04-30T19:56:26.794Z,14.73
2023-04-30T19:58:54.016Z,14.75
2023-04-30T20:01:20.917Z,14.71
2023-04-30T20:03:48.183Z,14.69
2023-04-30T20:06:15.524Z,14.67
2023-04-30T20:08:42.632Z,14.56
2023-04-30T20:11:09.631Z,14.45
2023-04-30T20:13:36.620Z,14.47
2023-04-30T20:16:04.174Z,14.46
2023-04-30T20:18:31.263Z,14.21
2023-04-30T20:20:58.630Z,14.08
2023-04-30T20:23:25.711Z,14.07
2023-04-30T20:25:55.001Z,14.23
2023-04-30T20:28:22.259Z,14.16
2023-04-30T20:30:49.468Z,14.10
2023-04-30T20:33:16.647Z,14.22
2023-04-30T20:35:47.317Z,14.14
2023-04-30T20:38:17.278Z,13.94
2023-04-30T20:40:46.148Z,14.03
2023-04-30T20:43:13.180Z,13.97
2023-04-30T20:45:42.579Z,13.98
2023-04-30T20:48:09.988Z,13.99
2023-04-30T20:50:37.700Z,13.95
2023-04-30T20:53:04.795Z,13.91
2023-04-30T20:55:31.936Z,13.91
2023-04-30T20:57:58.985Z,13.95
2023-04-30T21:00:26.141Z,13.94
2023-04-30T21:02:54.074Z,13.95
2023-04-30T21:05:21.377Z,13.82
2023-04-30T21:07:48.225Z,13.86
2023-04-30T21:10:15.322Z,13.93
2023-04-30T21:12:42.529Z,13.85
2023-04-30T21:15:11.148Z,13.93
2023-04-30T21:17:38.210Z,14.00
2023-04-30T21:20:05.998Z,14.05
2023-04-30T21:22:34.348Z,13.98
2023-04-30T21:25:01.334Z,14.07
2023-04-30T21:27:28.298Z,13.96
2023-04-30T21:29:55.487Z,13.90
2023-04-30T21:32:24.668Z,13.89
2023-04-30T21:34:55.006Z,13.97
2023-04-30T21:37:24.244Z,13.97
2023-04-30T21:39:51.190Z,13.94
2023-04-30T21:42:18.237Z,13.94
2023-04-30T21:44:45.292Z,13.82
2023-04-30T21:47:12.375Z,13.88
2023-04-30T21:49:39.238Z,13.77
2023-04-30T21:52:08.327Z,13.70
2023-04-30T21:54:35.340Z,13.69
2023-04-30T21:57:02.845Z,13.86
2023-04-30T21:59:29.772Z,13.90
2023-04-30T22:02:03.056Z,13.78
2023-04-30T22:04:32.239Z,13.74
2023-04-30T22:07:00.336Z,13.77
2023-04-30T22:09:27.274Z,13.85
2023-04-30T22:11:54.310Z,13.78
2023-04-30T22:14:21.252Z,13.62
2023-04-30T22:16:48.304Z,13.43
2023-04-30T22:19:15.239Z,13.52
2023-04-30T22:21:42.351Z,13.51
2023-04-30T22:24:09.489Z,13.33
2023-04-30T22:26:36.477Z,13.37
2023-04-30T22:29:03.342Z,13.21
2023-04-30T22:31:30.624Z,12.94
2023-04-30T22:33:57.558Z,13.05
2023-04-30T22:36:24.517Z,13.00
2023-04-30T22:38:51.510Z,12.94
2023-04-30T22:41:18.753Z,12.95
2023-04-30T22:43:47.382Z,12.98
2023-04-30T22:46:15.624Z,12.95
2023-04-30T22:48:44.410Z,12.86
2023-04-30T22:51:11.516Z,12.84
2023-04-30T22:53:38.783Z,12.77
2023-04-30T22:56:06.108Z,12.55
2023-04-30T22:58:32.958Z,12.56
2023-04-30T23:01:00.142Z,12.35
2023-04-30T23:03:27.085Z,12.44
2023-04-30T23:05:54.095Z,12.55
2023-04-30T23:08:21.029Z,12.55
2023-04-30T23:10:49.244Z,12.50
2023-04-30T23:13:18.658Z,12.39
2023-04-30T23:15:45.857Z,12.36
2023-04-30T23:18:13.020Z,12.21
2023-04-30T23:20:40.909Z,12.01
2023-04-30T23:23:07.782Z,12.07
2023-04-30T23:25:34.760Z,12.20
2023-04-30T23:28:01.806Z,12.18
2023-04-30T23:30:29.241Z,12.21
2023-04-30T23:32:56.608Z,12.01
2023-04-30T23:35:23.584Z,12.05
2023-04-30T23:37:50.632Z,12.03
2023-04-30T23:40:19.741Z,12.13
2023-04-30T23:42:46.895Z,12.00
2023-04-30T23:45:13.882Z,11.85
2023-04-30T23:47:40.976Z,11.77
2023-04-30T23:50:08.788Z,11.78
2023-04-30T23:52:36.798Z,11.83
2023-04-30T23:55:04.198Z,11.77
2023-04-30T23:57:31.393Z,11.93
2023-04-30T23:59:58.931Z,11.84
